sensor_id;sensor_type;location;lat;lon;timestamp;pressure;altitude;pressure_sealevel;temperature
40624;BMP280;26325;48.594;11.650;2022-08-25T00:01:30;96828.31;;;16.52
40624;BMP280;26325;48.594;11.650;2022-08-25T00:04:00;96821.06;;;16.49
40624;BMP280;26325;48.594;11.650;2022-08-25T00:06:28;96826.84;;;16.37
40624;BMP280;26325;48.594;11.650;2022-08-25T00:08:54;96816.22;;;16.28
40624;BMP280;26325;48.594;11.650;2022-08-25T00:11:28;96824.59;;;16.20
40624;BMP280;26325;48.594;11.650;2022-08-25T00:14:00;96824.03;;;16.28
40624;BMP280;26325;48.594;11.650;2022-08-25T00:16:27;96812.03;;;16.32
40624;BMP280;26325;48.594;11.650;2022-08-25T00:19:12;96817.47;;;16.36
40624;BMP280;26325;48.594;11.650;2022-08-25T00:21:39;96813.31;;;16.35
40624;BMP280;26325;48.594;11.650;2022-08-25T00:24:05;96816.47;;;16.32
40624;BMP280;26325;48.594;11.650;2022-08-25T00:26:31;96806.56;;;16.29
40624;BMP280;26325;48.594;11.650;2022-08-25T00:28:59;96805.06;;;16.23
40624;BMP280;26325;48.594;11.650;2022-08-25T00:31:24;96807.22;;;16.06
40624;BMP280;26325;48.594;11.650;2022-08-25T00:33:51;96797.34;;;16.03
40624;BMP280;26325;48.594;11.650;2022-08-25T00:36:18;96799.38;;;16.11
40624;BMP280;26325;48.594;11.650;2022-08-25T00:38:49;96807.44;;;16.15
40624;BMP280;26325;48.594;11.650;2022-08-25T00:41:20;96802.19;;;16.20
40624;BMP280;26325;48.594;11.650;2022-08-25T00:43:58;96803.75;;;16.20
40624;BMP280;26325;48.594;11.650;2022-08-25T00:46:32;96807.16;;;16.21
40624;BMP280;26325;48.594;11.650;2022-08-25T00:49:07;96805.06;;;16.23
40624;BMP280;26325;48.594;11.650;2022-08-25T00:51:51;96807.41;;;16.20
40624;BMP280;26325;48.594;11.650;2022-08-25T00:54:21;96799.41;;;16.01
40624;BMP280;26325;48.594;11.650;2022-08-25T00:56:48;96799.94;;;15.94
40624;BMP280;26325;48.594;11.650;2022-08-25T00:59:19;96803.34;;;15.94
40624;BMP280;26325;48.594;11.650;2022-08-25T01:01:46;96808.84;;;15.98
40624;BMP280;26325;48.594;11.650;2022-08-25T01:04:13;96801.03;;;15.98
40624;BMP280;26325;48.594;11.650;2022-08-25T01:06:40;96798.41;;;15.98
40624;BMP280;26325;48.594;11.650;2022-08-25T01:09:09;96797.38;;;15.89
40624;BMP280;26325;48.594;11.650;2022-08-25T01:11:37;96803.59;;;15.93
40624;BMP280;26325;48.594;11.650;2022-08-25T01:14:02;96794.22;;;15.97
40624;BMP280;26325;48.594;11.650;2022-08-25T01:16:35;96796.59;;;15.98
40624;BMP280;26325;48.594;11.650;2022-08-25T01:19:02;96797.91;;;15.91
40624;BMP280;26325;48.594;11.650;2022-08-25T01:21:31;96794.78;;;15.84
40624;BMP280;26325;48.594;11.650;2022-08-25T01:24:02;96792.19;;;15.84
40624;BMP280;26325;48.594;11.650;2022-08-25T01:26:30;96790.69;;;15.73
40624;BMP280;26325;48.594;11.650;2022-08-25T01:28:59;96787.84;;;15.60
40624;BMP280;26325;48.594;11.650;2022-08-25T01:31:43;96781.34;;;15.58
40624;BMP280;26325;48.594;11.650;2022-08-25T01:34:10;96774.31;;;15.63
40624;BMP280;26325;48.594;11.650;2022-08-25T01:36:37;96770.13;;;15.67
40624;BMP280;26325;48.594;11.650;2022-08-25T01:39:04;96775.28;;;15.77
40624;BMP280;26325;48.594;11.650;2022-08-25T01:43:58;96772.69;;;15.82
40624;BMP280;26325;48.594;11.650;2022-08-25T01:46:23;96773.47;;;15.82
40624;BMP280;26325;48.594;11.650;2022-08-25T01:48:49;96773.97;;;15.79
40624;BMP280;26325;48.594;11.650;2022-08-25T01:51:18;96772.41;;;15.78
40624;BMP280;26325;48.594;11.650;2022-08-25T01:53:47;96772.94;;;15.80
40624;BMP280;26325;48.594;11.650;2022-08-25T01:56:15;96778.16;;;15.80
40624;BMP280;26325;48.594;11.650;2022-08-25T01:58:44;96778.66;;;15.82
40624;BMP280;26325;48.594;11.650;2022-08-25T02:01:16;96773.47;;;15.82
40624;BMP280;26325;48.594;11.650;2022-08-25T02:03:43;96779.72;;;15.81
40624;BMP280;26325;48.594;11.650;2022-08-25T02:06:11;96773.47;;;15.82
40624;BMP280;26325;48.594;11.650;2022-08-25T02:08:38;96774.72;;;15.84
40624;BMP280;26325;48.594;11.650;2022-08-25T02:11:04;96783.31;;;15.85
40624;BMP280;26325;48.594;11.650;2022-08-25T02:13:34;96778.91;;;15.85
40624;BMP280;26325;48.594;11.650;2022-08-25T02:16:00;96782.81;;;15.83
40624;BMP280;26325;48.594;11.650;2022-08-25T02:18:28;96778.94;;;15.81
40624;BMP280;26325;48.594;11.650;2022-08-25T02:20:56;96784.41;;;15.79
40624;BMP280;26325;48.594;11.650;2022-08-25T02:23:23;96783.34;;;15.75
40624;BMP280;26325;48.594;11.650;2022-08-25T02:25:48;96782.31;;;15.76
40624;BMP280;26325;48.594;11.650;2022-08-25T02:28:17;96770.84;;;15.77
40624;BMP280;26325;48.594;11.650;2022-08-25T02:30:42;96770.06;;;15.77
40624;BMP280;26325;48.594;11.650;2022-08-25T02:33:08;96774.50;;;15.76
40624;BMP280;26325;48.594;11.650;2022-08-25T02:35:37;96764.66;;;15.73
40624;BMP280;26325;48.594;11.650;2022-08-25T02:38:09;96759.69;;;15.67
40624;BMP280;26325;48.594;11.650;2022-08-25T02:40:34;96764.16;;;15.62
40624;BMP280;26325;48.594;11.650;2022-08-25T02:43:00;96759.72;;;15.62
40624;BMP280;26325;48.594;11.650;2022-08-25T02:45:28;96762.34;;;15.62
40624;BMP280;26325;48.594;11.650;2022-08-25T02:48:02;96756.09;;;15.58
40624;BMP280;26325;48.594;11.650;2022-08-25T02:50:28;96756.38;;;15.52
40624;BMP280;26325;48.594;11.650;2022-08-25T02:52:53;96754.84;;;15.41
40624;BMP280;26325;48.594;11.650;2022-08-25T02:55:21;96753.56;;;15.43
40624;BMP280;26325;48.594;11.650;2022-08-25T02:57:47;96758.25;;;15.37
40624;BMP280;26325;48.594;11.650;2022-08-25T03:00:16;96750.72;;;15.35
40624;BMP280;26325;48.594;11.650;2022-08-25T03:02:42;96753.84;;;15.37
40624;BMP280;26325;48.594;11.650;2022-08-25T03:05:08;96747.59;;;15.38
40624;BMP280;26325;48.594;11.650;2022-08-25T03:07:35;96745.50;;;15.35
40624;BMP280;26325;48.594;11.650;2022-08-25T03:10:14;96751.25;;;15.23
40624;BMP280;26325;48.594;11.650;2022-08-25T03:12:40;96753.09;;;15.27
40624;BMP280;26325;48.594;11.650;2022-08-25T03:15:09;96746.06;;;15.23
40624;BMP280;26325;48.594;11.650;2022-08-25T03:17:35;96749.19;;;15.20
40624;BMP280;26325;48.594;11.650;2022-08-25T03:20:03;96751.53;;;15.21
40624;BMP280;26325;48.594;11.650;2022-08-25T03:22:28;96742.94;;;15.25
40624;BMP280;26325;48.594;11.650;2022-08-25T03:24:58;96751.25;;;15.23
40624;BMP280;26325;48.594;11.650;2022-08-25T03:27:42;96751.00;;;15.29
40624;BMP280;26325;48.594;11.650;2022-08-25T03:30:08;96744.75;;;15.25
40624;BMP280;26325;48.594;11.650;2022-08-25T03:32:34;96748.13;;;15.30
40624;BMP280;26325;48.594;11.650;2022-08-25T03:34:59;96752.81;;;15.24
40624;BMP280;26325;48.594;11.650;2022-08-25T03:37:26;96749.72;;;15.22
40624;BMP280;26325;48.594;11.650;2022-08-25T03:39:52;96746.09;;;15.13
40624;BMP280;26325;48.594;11.650;2022-08-25T03:42:17;96744.50;;;15.17
40624;BMP280;26325;48.594;11.650;2022-08-25T03:44:43;96745.00;;;15.24
40624;BMP280;26325;48.594;11.650;2022-08-25T03:47:09;96746.06;;;15.27
40624;BMP280;26325;48.594;11.650;2022-08-25T03:49:34;96739.81;;;15.28
40624;BMP280;26325;48.594;11.650;2022-08-25T03:52:00;96742.66;;;15.32
40624;BMP280;26325;48.594;11.650;2022-08-25T03:54:27;96744.25;;;15.28
40624;BMP280;26325;48.594;11.650;2022-08-25T03:56:55;96736.44;;;15.28
40624;BMP280;26325;48.594;11.650;2022-08-25T03:59:23;96735.13;;;15.30
40624;BMP280;26325;48.594;11.650;2022-08-25T04:01:48;96739.28;;;15.26
40624;BMP280;26325;48.594;11.650;2022-08-25T04:04:14;96734.88;;;15.27
40624;BMP280;26325;48.594;11.650;2022-08-25T04:06:41;96732.00;;;15.28
40624;BMP280;26325;48.594;11.650;2022-08-25T04:09:09;96732.53;;;15.30
40624;BMP280;26325;48.594;11.650;2022-08-25T04:11:36;96726.81;;;15.28
40624;BMP280;26325;48.594;11.650;2022-08-25T04:14:03;96728.88;;;15.26
40624;BMP280;26325;48.594;11.650;2022-08-25T04:16:30;96732.00;;;15.28
40624;BMP280;26325;48.594;11.650;2022-08-25T04:18:58;96724.72;;;15.25
40624;BMP280;26325;48.594;11.650;2022-08-25T04:21:24;96730.97;;;15.24
40624;BMP280;26325;48.594;11.650;2022-08-25T04:23:51;96731.00;;;15.20
40624;BMP280;26325;48.594;11.650;2022-08-25T04:26:21;96736.19;;;15.20
40624;BMP280;26325;48.594;11.650;2022-08-25T04:28:47;96731.00;;;15.20
40624;BMP280;26325;48.594;11.650;2022-08-25T04:31:16;96737.22;;;15.24
40624;BMP280;26325;48.594;11.650;2022-08-25T04:33:43;96738.78;;;15.24
40624;BMP280;26325;48.594;11.650;2022-08-25T04:36:09;96736.16;;;15.24
40624;BMP280;26325;48.594;11.650;2022-08-25T04:38:41;96741.13;;;15.26
40624;BMP280;26325;48.594;11.650;2022-08-25T04:41:08;96741.13;;;15.26
40624;BMP280;26325;48.594;11.650;2022-08-25T04:43:35;96746.03;;;15.32
40624;BMP280;26325;48.594;11.650;2022-08-25T04:46:09;96740.31;;;15.35
40624;BMP280;26325;48.594;11.650;2022-08-25T04:48:36;96740.31;;;15.35
40624;BMP280;26325;48.594;11.650;2022-08-25T04:51:09;96743.72;;;15.31
40624;BMP280;26325;48.594;11.650;2022-08-25T04:53:39;96746.28;;;15.36
40624;BMP280;26325;48.594;11.650;2022-08-25T04:56:07;96743.44;;;15.37
40624;BMP280;26325;48.594;11.650;2022-08-25T04:58:33;96750.16;;;15.43
40624;BMP280;26325;48.594;11.650;2022-08-25T05:01:14;96739.25;;;15.46
40624;BMP280;26325;48.594;11.650;2022-08-25T05:03:45;96736.59;;;15.51
40624;BMP280;26325;48.594;11.650;2022-08-25T05:06:12;96736.06;;;15.59
40624;BMP280;26325;48.594;11.650;2022-08-25T05:08:40;96736.56;;;15.65
40624;BMP280;26325;48.594;11.650;2022-08-25T05:11:10;96733.66;;;15.72
40624;BMP280;26325;48.594;11.650;2022-08-25T05:13:44;96744.59;;;15.74
40624;BMP280;26325;48.594;11.650;2022-08-25T05:16:13;96740.63;;;15.86
40624;BMP280;26325;48.594;11.650;2022-08-25T05:18:39;96736.91;;;15.97
40624;BMP280;26325;48.594;11.650;2022-08-25T05:21:09;96744.16;;;16.09
40624;BMP280;26325;48.594;11.650;2022-08-25T05:23:35;96738.66;;;16.16
40624;BMP280;26325;48.594;11.650;2022-08-25T05:26:07;96742.00;;;16.21
40624;BMP280;26325;48.594;11.650;2022-08-25T05:28:34;96726.31;;;16.31
40624;BMP280;26325;48.594;11.650;2022-08-25T05:31:01;96722.59;;;16.41
40624;BMP280;26325;48.594;11.650;2022-08-25T05:33:27;96735.31;;;16.48
40624;BMP280;26325;48.594;11.650;2022-08-25T05:36:00;96718.28;;;16.60
40624;BMP280;26325;48.594;11.650;2022-08-25T05:38:26;96721.25;;;16.77
40624;BMP280;26325;48.594;11.650;2022-08-25T05:40:56;96720.81;;;16.97
40624;BMP280;26325;48.594;11.650;2022-08-25T05:43:22;96716.22;;;17.13
40624;BMP280;26325;48.594;11.650;2022-08-25T05:45:48;96716.00;;;17.32
40624;BMP280;26325;48.594;11.650;2022-08-25T05:48:13;96715.72;;;17.56
40624;BMP280;26325;48.594;11.650;2022-08-25T05:50:41;96712.75;;;17.86
40624;BMP280;26325;48.594;11.650;2022-08-25T05:53:14;96723.56;;;18.15
40624;BMP280;26325;48.594;11.650;2022-08-25T05:55:45;96719.88;;;18.34
40624;BMP280;26325;48.594;11.650;2022-08-25T05:58:11;96720.50;;;18.63
40624;BMP280;26325;48.594;11.650;2022-08-25T06:00:39;96707.03;;;18.87
40624;BMP280;26325;48.594;11.650;2022-08-25T06:03:05;96716.09;;;19.08
40624;BMP280;26325;48.594;11.650;2022-08-25T06:05:33;96720.28;;;19.35
40624;BMP280;26325;48.594;11.650;2022-08-25T06:08:05;96725.84;;;19.73
40624;BMP280;26325;48.594;11.650;2022-08-25T06:10:32;96723.94;;;20.13
40624;BMP280;26325;48.594;11.650;2022-08-25T06:12:58;96726.09;;;20.67
40624;BMP280;26325;48.594;11.650;2022-08-25T06:15:24;96720.63;;;21.28
40624;BMP280;26325;48.594;11.650;2022-08-25T06:17:50;96716.09;;;22.54
40624;BMP280;26325;48.594;11.650;2022-08-25T06:20:23;96719.84;;;25.04
40624;BMP280;26325;48.594;11.650;2022-08-25T06:22:50;96718.75;;;27.22
40624;BMP280;26325;48.594;11.650;2022-08-25T06:25:18;96717.66;;;29.22
40624;BMP280;26325;48.594;11.650;2022-08-25T06:27:44;96721.22;;;30.45
40624;BMP280;26325;48.594;11.650;2022-08-25T06:30:13;96710.22;;;30.22
40624;BMP280;26325;48.594;11.650;2022-08-25T06:32:39;96719.75;;;28.76
40624;BMP280;26325;48.594;11.650;2022-08-25T06:35:07;96724.16;;;28.01
40624;BMP280;26325;48.594;11.650;2022-08-25T06:37:34;96717.31;;;26.98
40624;BMP280;26325;48.594;11.650;2022-08-25T06:40:00;96721.72;;;26.40
40624;BMP280;26325;48.594;11.650;2022-08-25T06:42:26;96719.97;;;26.21
40624;BMP280;26325;48.594;11.650;2022-08-25T06:44:52;96715.59;;;26.13
40624;BMP280;26325;48.594;11.650;2022-08-25T06:47:18;96705.66;;;25.98
40624;BMP280;26325;48.594;11.650;2022-08-25T06:49:46;96717.56;;;25.69
40624;BMP280;26325;48.594;11.650;2022-08-25T06:52:11;96726.47;;;25.65
40624;BMP280;26325;48.594;11.650;2022-08-25T06:54:37;96707.28;;;25.56
40624;BMP280;26325;48.594;11.650;2022-08-25T06:57:03;96706.41;;;25.76
40624;BMP280;26325;48.594;11.650;2022-08-25T06:59:29;96704.22;;;26.01
40624;BMP280;26325;48.594;11.650;2022-08-25T07:01:54;96716.22;;;26.22
40624;BMP280;26325;48.594;11.650;2022-08-25T07:04:20;96718.06;;;26.33
40624;BMP280;26325;48.594;11.650;2022-08-25T07:06:46;96720.91;;;26.52
40624;BMP280;26325;48.594;11.650;2022-08-25T07:09:16;96718.25;;;26.90
40624;BMP280;26325;48.594;11.650;2022-08-25T07:11:42;96711.09;;;26.79
40624;BMP280;26325;48.594;11.650;2022-08-25T07:14:10;96718.91;;;26.87
40624;BMP280;26325;48.594;11.650;2022-08-25T07:16:38;96711.47;;;27.19
40624;BMP280;26325;48.594;11.650;2022-08-25T07:19:11;96709.34;;;27.25
40624;BMP280;26325;48.594;11.650;2022-08-25T07:21:39;96703.97;;;27.36
40624;BMP280;26325;48.594;11.650;2022-08-25T07:24:13;96697.47;;;27.34
40624;BMP280;26325;48.594;11.650;2022-08-25T07:26:40;96703.66;;;27.68
40624;BMP280;26325;48.594;11.650;2022-08-25T07:29:17;96697.84;;;27.78
40624;BMP280;26325;48.594;11.650;2022-08-25T07:31:42;96697.75;;;26.75
40624;BMP280;26325;48.594;11.650;2022-08-25T07:34:09;96698.50;;;27.03
40624;BMP280;26325;48.594;11.650;2022-08-25T07:36:54;96697.91;;;26.17
40624;BMP280;26325;48.594;11.650;2022-08-25T07:39:20;96686.00;;;26.23
40624;BMP280;26325;48.594;11.650;2022-08-25T07:41:45;96694.69;;;26.35
40624;BMP280;26325;48.594;11.650;2022-08-25T07:44:11;96692.81;;;26.36
40624;BMP280;26325;48.594;11.650;2022-08-25T07:46:37;96696.09;;;26.83
40624;BMP280;26325;48.594;11.650;2022-08-25T07:49:03;96698.03;;;27.13
40624;BMP280;26325;48.594;11.650;2022-08-25T07:51:29;96693.63;;;27.32
40624;BMP280;26325;48.594;11.650;2022-08-25T07:53:55;96692.88;;;27.61
40624;BMP280;26325;48.594;11.650;2022-08-25T07:56:21;96692.69;;;27.85
40624;BMP280;26325;48.594;11.650;2022-08-25T07:58:46;96708.25;;;27.26
40624;BMP280;26325;48.594;11.650;2022-08-25T08:01:14;96704.16;;;27.89
40624;BMP280;26325;48.594;11.650;2022-08-25T08:03:43;96699.09;;;27.53
40624;BMP280;26325;48.594;11.650;2022-08-25T08:06:13;96696.44;;;27.53
40624;BMP280;26325;48.594;11.650;2022-08-25T08:08:46;96695.53;;;27.61
40624;BMP280;26325;48.594;11.650;2022-08-25T08:11:25;96684.47;;;27.90
40624;BMP280;26325;48.594;11.650;2022-08-25T08:13:51;96699.44;;;27.22
40624;BMP280;26325;48.594;11.650;2022-08-25T08:16:18;96694.63;;;27.12
40624;BMP280;26325;48.594;11.650;2022-08-25T08:18:45;96694.97;;;27.11
40624;BMP280;26325;48.594;11.650;2022-08-25T08:21:20;96698.00;;;26.97
40624;BMP280;26325;48.594;11.650;2022-08-25T08:23:50;96685.84;;;27.23
40624;BMP280;26325;48.594;11.650;2022-08-25T08:26:16;96692.81;;;27.01
40624;BMP280;26325;48.594;11.650;2022-08-25T08:28:44;96689.59;;;26.95
40624;BMP280;26325;48.594;11.650;2022-08-25T08:31:10;96698.47;;;27.14
40624;BMP280;26325;48.594;11.650;2022-08-25T08:33:42;96689.56;;;27.07
40624;BMP280;26325;48.594;11.650;2022-08-25T08:36:09;96691.31;;;27.30
40624;BMP280;26325;48.594;11.650;2022-08-25T08:38:38;96679.94;;;27.45
40624;BMP280;26325;48.594;11.650;2022-08-25T08:55:58;96680.78;;;27.49
40624;BMP280;26325;48.594;11.650;2022-08-25T08:58:46;96680.59;;;27.12
40624;BMP280;26325;48.594;11.650;2022-08-25T09:01:22;96663.97;;;27.26
40624;BMP280;26325;48.594;11.650;2022-08-25T09:03:55;96670.78;;;27.27
40624;BMP280;26325;48.594;11.650;2022-08-25T09:06:42;96666.69;;;27.14
40624;BMP280;26325;48.594;11.650;2022-08-25T09:09:19;96674.38;;;27.50
40624;BMP280;26325;48.594;11.650;2022-08-25T09:25:27;96650.47;;;28.84
40624;BMP280;26325;48.594;11.650;2022-08-25T09:28:07;96650.25;;;29.55
40624;BMP280;26325;48.594;11.650;2022-08-25T09:33:20;96652.66;;;28.60
40624;BMP280;26325;48.594;11.650;2022-08-25T09:35:47;96655.94;;;28.72
40624;BMP280;26325;48.594;11.650;2022-08-25T09:38:12;96653.28;;;28.54
40624;BMP280;26325;48.594;11.650;2022-08-25T09:40:46;96655.31;;;28.60
40624;BMP280;26325;48.594;11.650;2022-08-25T09:50:59;96644.63;;;28.38
40624;BMP280;26325;48.594;11.650;2022-08-25T09:53:26;96640.81;;;28.76
40624;BMP280;26325;48.594;11.650;2022-08-25T09:55:59;96644.47;;;28.31
40624;BMP280;26325;48.594;11.650;2022-08-25T09:58:31;96636.91;;;28.52
40624;BMP280;26325;48.594;11.650;2022-08-25T10:01:04;96640.00;;;28.54
40624;BMP280;26325;48.594;11.650;2022-08-25T10:03:30;96638.56;;;28.78
40624;BMP280;26325;48.594;11.650;2022-08-25T10:06:11;96637.91;;;28.81
40624;BMP280;26325;48.594;11.650;2022-08-25T10:12:00;96637.25;;;29.50
40624;BMP280;26325;48.594;11.650;2022-08-25T10:14:39;96622.69;;;30.20
40624;BMP280;26325;48.594;11.650;2022-08-25T10:17:28;96629.78;;;29.84
40624;BMP280;26325;48.594;11.650;2022-08-25T10:22:21;96616.13;;;31.07
40624;BMP280;26325;48.594;11.650;2022-08-25T10:24:48;96622.13;;;31.86
40624;BMP280;26325;48.594;11.650;2022-08-25T10:33:42;96625.97;;;31.42
40624;BMP280;26325;48.594;11.650;2022-08-25T10:36:17;96612.97;;;31.38
40624;BMP280;26325;48.594;11.650;2022-08-25T10:39:03;96609.28;;;30.71
40624;BMP280;26325;48.594;11.650;2022-08-25T10:44:32;96610.19;;;30.24
40624;BMP280;26325;48.594;11.650;2022-08-25T10:47:38;96604.03;;;30.81
40624;BMP280;26325;48.594;11.650;2022-08-25T10:50:17;96608.81;;;29.32
40624;BMP280;26325;48.594;11.650;2022-08-25T10:55:45;96603.41;;;28.66
40624;BMP280;26325;48.594;11.650;2022-08-25T11:04:06;96597.59;;;29.42
40624;BMP280;26325;48.594;11.650;2022-08-25T11:06:43;96591.91;;;29.21
40624;BMP280;26325;48.594;11.650;2022-08-25T11:09:13;96589.63;;;29.42
40624;BMP280;26325;48.594;11.650;2022-08-25T11:14:20;96582.16;;;28.26
40624;BMP280;26325;48.594;11.650;2022-08-25T11:17:11;96589.41;;;28.29
40624;BMP280;26325;48.594;11.650;2022-08-25T11:19:46;96588.78;;;28.94
40624;BMP280;26325;48.594;11.650;2022-08-25T11:30:13;96583.69;;;30.02
40624;BMP280;26325;48.594;11.650;2022-08-25T11:32:44;96579.16;;;31.02
40624;BMP280;26325;48.594;11.650;2022-08-25T11:35:12;96574.13;;;30.98
40624;BMP280;26325;48.594;11.650;2022-08-25T11:54:29;96569.00;;;30.15
40624;BMP280;26325;48.594;11.650;2022-08-25T11:57:17;96551.91;;;31.22
40624;BMP280;26325;48.594;11.650;2022-08-25T12:10:21;96556.69;;;32.09
40624;BMP280;26325;48.594;11.650;2022-08-25T12:29:26;96549.34;;;33.37
40624;BMP280;26325;48.594;11.650;2022-08-25T12:31:59;96540.16;;;33.72
40624;BMP280;26325;48.594;11.650;2022-08-25T12:37:16;96526.03;;;34.62
40624;BMP280;26325;48.594;11.650;2022-08-25T12:47:47;96530.50;;;34.85
40624;BMP280;26325;48.594;11.650;2022-08-25T12:50:43;96535.34;;;35.04
40624;BMP280;26325;48.594;11.650;2022-08-25T12:53:38;96523.72;;;33.60
40624;BMP280;26325;48.594;11.650;2022-08-25T13:12:36;96526.38;;;33.70
40624;BMP280;26325;48.594;11.650;2022-08-25T13:15:06;96518.13;;;32.06
40624;BMP280;26325;48.594;11.650;2022-08-25T13:17:35;96509.22;;;33.37
40624;BMP280;26325;48.594;11.650;2022-08-25T13:22:43;96509.69;;;34.33
40624;BMP280;26325;48.594;11.650;2022-08-25T13:25:17;96498.44;;;34.65
40624;BMP280;26325;48.594;11.650;2022-08-25T13:27:42;96495.34;;;35.20
40624;BMP280;26325;48.594;11.650;2022-08-25T13:30:29;96484.00;;;35.02
40624;BMP280;26325;48.594;11.650;2022-08-25T13:32:58;96489.28;;;34.59
40624;BMP280;26325;48.594;11.650;2022-08-25T13:35:29;96487.44;;;35.45
40624;BMP280;26325;48.594;11.650;2022-08-25T13:38:19;96482.28;;;35.22
40624;BMP280;26325;48.594;11.650;2022-08-25T13:41:02;96485.38;;;34.70
40624;BMP280;26325;48.594;11.650;2022-08-25T13:43:28;96485.81;;;35.55
40624;BMP280;26325;48.594;11.650;2022-08-25T13:45:55;96482.50;;;36.13
40624;BMP280;26325;48.594;11.650;2022-08-25T13:48:39;96482.34;;;36.52
40624;BMP280;26325;48.594;11.650;2022-08-25T13:51:38;96467.88;;;36.17
40624;BMP280;26325;48.594;11.650;2022-08-25T13:54:07;96487.53;;;35.78
40624;BMP280;26325;48.594;11.650;2022-08-25T13:56:39;96480.56;;;34.45
40624;BMP280;26325;48.594;11.650;2022-08-25T13:59:23;96464.47;;;33.54
40624;BMP280;26325;48.594;11.650;2022-08-25T14:01:51;96469.09;;;33.16
40624;BMP280;26325;48.594;11.650;2022-08-25T14:04:22;96463.22;;;32.15
40624;BMP280;26325;48.594;11.650;2022-08-25T14:07:05;96459.16;;;33.20
40624;BMP280;26325;48.594;11.650;2022-08-25T14:09:59;96465.50;;;34.65
40624;BMP280;26325;48.594;11.650;2022-08-25T14:17:32;96474.41;;;35.47
40624;BMP280;26325;48.594;11.650;2022-08-25T14:19:59;96465.78;;;35.62
40624;BMP280;26325;48.594;11.650;2022-08-25T14:22:25;96467.94;;;36.10
40624;BMP280;26325;48.594;11.650;2022-08-25T14:24:52;96462.63;;;36.36
40624;BMP280;26325;48.594;11.650;2022-08-25T14:27:18;96460.09;;;36.78
40624;BMP280;26325;48.594;11.650;2022-08-25T14:29:46;96456.47;;;37.13
40624;BMP280;26325;48.594;11.650;2022-08-25T14:32:14;96454.69;;;37.48
40624;BMP280;26325;48.594;11.650;2022-08-25T14:34:41;96449.75;;;37.43
40624;BMP280;26325;48.594;11.650;2022-08-25T14:37:19;96450.47;;;37.89
40624;BMP280;26325;48.594;11.650;2022-08-25T14:39:45;96450.78;;;37.72
40624;BMP280;26325;48.594;11.650;2022-08-25T14:42:11;96453.28;;;36.18
40624;BMP280;26325;48.594;11.650;2022-08-25T14:44:37;96463.84;;;35.66
40624;BMP280;26325;48.594;11.650;2022-08-25T14:47:04;96456.00;;;33.66
40624;BMP280;26325;48.594;11.650;2022-08-25T14:49:35;96443.81;;;33.48
40624;BMP280;26325;48.594;11.650;2022-08-25T14:52:20;96440.09;;;34.19
40624;BMP280;26325;48.594;11.650;2022-08-25T14:54:55;96439.06;;;34.00
40624;BMP280;26325;48.594;11.650;2022-08-25T14:57:22;96438.38;;;34.56
40624;BMP280;26325;48.594;11.650;2022-08-25T14:59:48;96442.16;;;33.81
40624;BMP280;26325;48.594;11.650;2022-08-25T15:02:16;96440.81;;;32.51
40624;BMP280;26325;48.594;11.650;2022-08-25T15:04:53;96433.19;;;32.97
40624;BMP280;26325;48.594;11.650;2022-08-25T15:07:19;96435.66;;;33.92
40624;BMP280;26325;48.594;11.650;2022-08-25T15:10:07;96431.22;;;34.36
40624;BMP280;26325;48.594;11.650;2022-08-25T15:12:33;96429.97;;;34.54
40624;BMP280;26325;48.594;11.650;2022-08-25T15:15:02;96427.25;;;33.94
40624;BMP280;26325;48.594;11.650;2022-08-25T15:17:28;96436.06;;;33.88
40624;BMP280;26325;48.594;11.650;2022-08-25T15:19:54;96429.94;;;33.84
40624;BMP280;26325;48.594;11.650;2022-08-25T15:22:19;96428.22;;;33.19
40624;BMP280;26325;48.594;11.650;2022-08-25T15:24:45;96433.56;;;32.68
40624;BMP280;26325;48.594;11.650;2022-08-25T15:27:11;96435.28;;;31.89
40624;BMP280;26325;48.594;11.650;2022-08-25T15:29:38;96434.00;;;31.59
40624;BMP280;26325;48.594;11.650;2022-08-25T15:32:07;96430.06;;;31.37
40624;BMP280;26325;48.594;11.650;2022-08-25T15:34:33;96425.81;;;31.32
40624;BMP280;26325;48.594;11.650;2022-08-25T15:37:09;96432.78;;;31.43
40624;BMP280;26325;48.594;11.650;2022-08-25T15:39:35;96424.94;;;31.15
40624;BMP280;26325;48.594;11.650;2022-08-25T15:42:01;96430.25;;;31.08
40624;BMP280;26325;48.594;11.650;2022-08-25T15:44:27;96422.31;;;31.18
40624;BMP280;26325;48.594;11.650;2022-08-25T15:46:59;96424.22;;;30.29
40624;BMP280;26325;48.594;11.650;2022-08-25T15:49:28;96425.03;;;29.69
40624;BMP280;26325;48.594;11.650;2022-08-25T15:51:54;96416.22;;;29.33
40624;BMP280;26325;48.594;11.650;2022-08-25T15:54:20;96417.41;;;29.64
40624;BMP280;26325;48.594;11.650;2022-08-25T15:56:46;96420.47;;;29.37
40624;BMP280;26325;48.594;11.650;2022-08-25T15:59:12;96415.22;;;29.15
40624;BMP280;26325;48.594;11.650;2022-08-25T16:01:38;96424.50;;;29.03
40624;BMP280;26325;48.594;11.650;2022-08-25T16:04:04;96416.75;;;29.16
40624;BMP280;26325;48.594;11.650;2022-08-25T16:06:30;96410.25;;;29.14
40624;BMP280;26325;48.594;11.650;2022-08-25T16:08:55;96406.00;;;29.09
40624;BMP280;26325;48.594;11.650;2022-08-25T16:11:23;96411.09;;;28.70
40624;BMP280;26325;48.594;11.650;2022-08-25T16:13:49;96412.72;;;28.78
40624;BMP280;26325;48.594;11.650;2022-08-25T16:16:16;96413.47;;;28.53
40624;BMP280;26325;48.594;11.650;2022-08-25T16:18:44;96415.38;;;28.53
40624;BMP280;26325;48.594;11.650;2022-08-25T16:21:15;96411.00;;;28.42
40624;BMP280;26325;48.594;11.650;2022-08-25T16:23:41;96403.00;;;28.38
40624;BMP280;26325;48.594;11.650;2022-08-25T16:26:08;96406.94;;;28.26
40624;BMP280;26325;48.594;11.650;2022-08-25T16:28:35;96400.75;;;28.22
40624;BMP280;26325;48.594;11.650;2022-08-25T16:31:01;96407.41;;;27.91
40624;BMP280;26325;48.594;11.650;2022-08-25T16:33:26;96405.19;;;27.74
40624;BMP280;26325;48.594;11.650;2022-08-25T16:35:52;96391.06;;;27.89
40624;BMP280;26325;48.594;11.650;2022-08-25T16:38:17;96397.53;;;27.69
40624;BMP280;26325;48.594;11.650;2022-08-25T16:40:44;96396.50;;;27.58
40624;BMP280;26325;48.594;11.650;2022-08-25T16:43:10;96399.59;;;27.60
40624;BMP280;26325;48.594;11.650;2022-08-25T16:45:36;96399.72;;;27.49